Depoe Bay, Oregon
Current Conditions -  °F | °C
As of 5:15 AM on Tuesday 21 Oct 2014 (Local Time) from KONP Reporting Station
Scattered Clouds Scattered Clouds  
Wind Chill: 54°   Ceiling: Unl
Heat Index: 54°   Visibility: 7mi
Dew Point: 54°   Wind: 13mph
Humidity: 100%   Direction: 180°S
Pressure: 29.96"   Gusts: 17mph
Location:  44.81°N, 124.06°W
Report Text: KONP 211215Z AUTO 18011G15KT 7SM SCT010 SCT026 SCT080 12/12 A2996 RMK AO2
Loading
Personal Weather Stations






























Interactive Weather Map New forecast layout! Learn more

10-Day Weather Forecast

Advertisements
Track Severe Weather on mobile